Dubois Crossroads, Indiana
Current Conditions -  °F | °C
As of 11:55 PM on Friday 19 Dec 2014 (Local Time) from KHNB Reporting Station
Clear Clear  
Wind Chill: 24°   Ceiling: Unl
Heat Index: 30°   Visibility: 10mi
Dew Point: 21°   Wind: 6mph
Humidity: 69%   Direction: 110°ESE
Pressure: 30.3"   Gusts: NA
Location:  38.4736°N, 86.7813°W
Report Text: KHNB 200555Z AUTO 11005KT 10SM CLR M01/M06 A3030 RMK AO1 11010 21020 400201040 52010
Loading
Personal Weather Stations






























Interactive Weather Map New forecast layout! Learn more

10-Day Weather Forecast

Advertisements
Track Severe Weather on mobile